createdAt,value
2023-01-18T00:02:23.140Z,4.31
2023-01-18T00:05:11.304Z,4.28
2023-01-18T00:07:39.087Z,4.15
2023-01-18T00:13:38.991Z,4.30
2023-01-18T00:16:20.104Z,4.25
2023-01-18T00:18:52.724Z,4.21
2023-01-18T00:21:20.894Z,4.23
2023-01-18T00:23:48.435Z,4.23
2023-01-18T00:26:16.137Z,4.28
2023-01-18T00:28:43.716Z,4.20
2023-01-18T00:31:20.062Z,4.23
2023-01-18T00:33:49.872Z,4.31
2023-01-18T00:36:26.876Z,4.39
2023-01-18T00:38:58.494Z,4.51
2023-01-18T00:41:39.011Z,4.49
2023-01-18T00:44:15.861Z,4.39
2023-01-18T00:46:43.419Z,4.50
2023-01-18T00:49:11.043Z,4.48
2023-01-18T00:51:38.557Z,4.43
2023-01-18T00:54:06.029Z,4.31
2023-01-18T00:56:33.877Z,4.44
2023-01-18T00:59:01.402Z,4.47
2023-01-18T01:01:29.114Z,4.55
2023-01-18T01:04:15.625Z,4.58
2023-01-18T01:07:28.083Z,4.48
2023-01-18T01:09:58.306Z,4.38
2023-01-18T01:12:44.563Z,4.41
2023-01-18T01:15:30.415Z,4.32
2023-01-18T01:18:16.319Z,4.16
2023-01-18T01:21:02.187Z,4.14
2023-01-18T01:23:53.717Z,4.14
2023-01-18T01:26:21.342Z,4.20
2023-01-18T01:28:59.681Z,4.45
2023-01-18T01:31:48.367Z,4.28
2023-01-18T01:34:16.030Z,4.24
2023-01-18T01:36:43.590Z,4.31
2023-01-18T01:39:11.307Z,4.41
2023-01-18T01:41:39.036Z,4.28
2023-01-18T01:44:43.216Z,4.30
2023-01-18T01:47:28.316Z,4.16
2023-01-18T01:50:03.287Z,4.26
2023-01-18T01:52:35.973Z,4.08
2023-01-18T01:55:12.290Z,4.11
2023-01-18T01:57:46.379Z,4.23
2023-01-18T02:00:29.699Z,4.19
2023-01-18T02:03:10.857Z,4.16
2023-01-18T02:05:45.729Z,4.12
2023-01-18T02:08:22.776Z,4.27
2023-01-18T02:10:53.783Z,4.24
2023-01-18T02:13:41.377Z,4.07
2023-01-18T02:17:08.884Z,4.20
2023-01-18T02:20:19.686Z,3.93
2023-01-18T02:23:02.202Z,4.10
2023-01-18T02:26:06.767Z,3.73
2023-01-18T02:28:37.729Z,3.74
2023-01-18T02:31:15.185Z,3.81
2023-01-18T02:33:47.218Z,3.67
2023-01-18T02:36:35.303Z,3.40
2023-01-18T02:39:23.575Z,3.26
2023-01-18T02:42:16.467Z,3.29
2023-01-18T02:45:05.362Z,3.38
2023-01-18T02:47:34.026Z,3.29
2023-01-18T02:50:10.559Z,3.36
2023-01-18T02:52:47.487Z,3.43
2023-01-18T02:55:36.711Z,3.41
2023-01-18T02:58:33.151Z,3.14
2023-01-18T03:01:15.285Z,3.18
2023-01-18T03:03:48.548Z,3.25
2023-01-18T03:06:16.144Z,3.18
2023-01-18T03:08:48.505Z,3.23
2023-01-18T03:11:24.863Z,2.94
2023-01-18T03:14:04.145Z,2.99
2023-01-18T03:16:58.560Z,3.05
2023-01-18T03:19:54.489Z,3.14
2023-01-18T03:22:44.067Z,3.20
2023-01-18T03:25:16.672Z,3.40
2023-01-18T03:28:05.972Z,3.44
2023-01-18T03:30:53.412Z,3.55
2023-01-18T03:33:43.337Z,3.42
2023-01-18T03:36:32.469Z,3.43
2023-01-18T03:39:05.388Z,3.23
2023-01-18T03:41:42.467Z,3.35
2023-01-18T03:44:14.900Z,3.27
2023-01-18T03:46:43.936Z,3.20
2023-01-18T03:49:12.422Z,3.24
2023-01-18T03:52:00.261Z,3.22
2023-01-18T03:54:45.380Z,3.25
2023-01-18T03:57:21.039Z,3.01
2023-01-18T03:59:49.086Z,2.98
2023-01-18T04:02:18.006Z,3.12
2023-01-18T04:04:45.514Z,3.14
2023-01-18T04:07:13.016Z,3.16
2023-01-18T04:09:40.527Z,3.28
2023-01-18T04:12:08.143Z,3.09
2023-01-18T04:14:35.611Z,3.10
2023-01-18T04:17:03.271Z,3.11
2023-01-18T04:19:30.803Z,2.99
2023-01-18T04:21:58.257Z,2.96
2023-01-18T04:24:25.854Z,3.01
2023-01-18T04:26:53.440Z,3.18
2023-01-18T04:29:21.420Z,3.17
2023-01-18T04:31:48.973Z,3.08
2023-01-18T04:34:16.561Z,3.02
2023-01-18T04:36:44.029Z,3.13
2023-01-18T04:39:13.307Z,3.26
2023-01-18T04:41:41.189Z,3.46
2023-01-18T04:44:08.919Z,3.31
2023-01-18T04:46:38.598Z,3.40
2023-01-18T04:49:06.924Z,3.60
2023-01-18T04:51:34.532Z,3.65
2023-01-18T04:54:02.074Z,3.51
2023-01-18T04:56:29.779Z,3.38
2023-01-18T04:58:57.512Z,3.44
2023-01-18T05:01:25.337Z,3.43
2023-01-18T05:03:53.882Z,3.64
2023-01-18T05:06:22.322Z,3.66
2023-01-18T05:08:50.692Z,3.77
2023-01-18T05:11:20.955Z,3.96
2023-01-18T05:13:48.882Z,3.70
2023-01-18T05:16:19.718Z,3.81
2023-01-18T05:18:48.446Z,3.76
2023-01-18T05:21:16.409Z,3.79
2023-01-18T05:23:44.282Z,3.81
2023-01-18T05:26:19.701Z,3.83
2023-01-18T05:28:48.233Z,3.90
2023-01-18T05:31:18.844Z,3.64
2023-01-18T05:33:46.625Z,3.66
2023-01-18T05:36:14.249Z,3.70
2023-01-18T05:38:41.887Z,3.45
2023-01-18T05:41:09.451Z,3.42
2023-01-18T05:43:38.288Z,3.26
2023-01-18T05:46:06.468Z,3.66
2023-01-18T05:48:34.065Z,3.80
2023-01-18T05:51:09.553Z,3.63
2023-01-18T05:53:37.607Z,3.60
2023-01-18T05:56:07.208Z,3.52
2023-01-18T05:58:35.648Z,3.67
2023-01-18T06:01:03.381Z,3.68
2023-01-18T06:03:31.027Z,3.86
2023-01-18T06:05:59.392Z,3.87
2023-01-18T06:08:26.945Z,3.76
2023-01-18T06:10:56.362Z,3.56
2023-01-18T06:13:25.151Z,3.57
2023-01-18T06:16:16.755Z,3.74
2023-01-18T06:18:51.760Z,3.49
2023-01-18T06:21:19.345Z,3.51
2023-01-18T06:23:46.968Z,3.46
2023-01-18T06:26:22.995Z,3.56
2023-01-18T06:28:53.642Z,3.45
2023-01-18T06:31:21.317Z,3.69
2023-01-18T06:33:48.966Z,3.62
2023-01-18T06:36:16.870Z,3.69
2023-01-18T06:38:45.560Z,3.70
2023-01-18T06:41:13.450Z,3.70
2023-01-18T06:43:41.116Z,3.72
2023-01-18T06:46:09.742Z,3.94
2023-01-18T06:48:48.240Z,4.05
2023-01-18T06:51:17.950Z,4.05
2023-01-18T06:53:45.534Z,3.93
2023-01-18T06:56:14.432Z,3.68
2023-01-18T06:58:42.172Z,3.94
2023-01-18T07:01:09.772Z,4.07
2023-01-18T07:03:38.948Z,3.87
2023-01-18T07:06:07.574Z,3.79
2023-01-18T07:08:35.755Z,3.76
2023-01-18T07:11:07.986Z,3.80
2023-01-18T07:13:36.360Z,3.85
2023-01-18T07:16:04.046Z,4.01
2023-01-18T07:18:34.042Z,3.96
2023-01-18T07:21:03.928Z,4.10
2023-01-18T07:23:31.404Z,4.22
2023-01-18T07:26:09.865Z,4.22
2023-01-18T07:28:37.733Z,4.16
2023-01-18T07:31:13.853Z,3.83
2023-01-18T07:33:45.847Z,4.01
2023-01-18T07:36:15.809Z,4.23
2023-01-18T07:38:52.680Z,4.10
2023-01-18T07:41:33.048Z,3.88
2023-01-18T07:44:10.860Z,3.77
2023-01-18T07:46:38.823Z,4.06
2023-01-18T07:52:44.296Z,4.08
2023-01-18T07:55:21.702Z,3.90
2023-01-18T07:57:49.551Z,3.93
2023-01-18T08:00:19.026Z,4.23
2023-01-18T08:02:55.620Z,4.28
2023-01-18T08:05:50.578Z,4.40
2023-01-18T08:08:33.802Z,4.13
2023-01-18T08:12:42.311Z,3.93
2023-01-18T08:14:47.347Z,3.73
2023-01-18T08:17:18.781Z,3.98
2023-01-18T08:20:06.227Z,4.09
2023-01-18T08:22:59.224Z,4.26
2023-01-18T08:26:23.058Z,4.32
2023-01-18T08:33:35.757Z,4.29
2023-01-18T08:37:42.782Z,3.86
2023-01-18T08:40:09.870Z,3.94
2023-01-18T08:42:37.373Z,3.94
2023-01-18T08:45:08.647Z,4.34
2023-01-18T08:47:36.564Z,4.03
2023-01-18T08:50:07.147Z,4.13
2023-01-18T08:52:37.850Z,3.92
2023-01-18T08:55:08.106Z,4.08
2023-01-18T08:57:39.580Z,3.88
2023-01-18T09:00:37.153Z,3.83
2023-01-18T09:03:14.756Z,3.62
2023-01-18T09:06:07.899Z,3.79
2023-01-18T09:09:15.126Z,3.57
2023-01-18T09:12:44.205Z,3.80
2023-01-18T09:16:42.393Z,3.88
2023-01-18T09:19:13.067Z,3.93
2023-01-18T09:22:24.158Z,4.03
2023-01-18T09:33:37.894Z,3.92
2023-01-18T09:44:42.229Z,3.80
2023-01-18T09:47:20.013Z,3.60
2023-01-18T09:50:04.351Z,3.70
2023-01-18T09:53:09.239Z,3.88
2023-01-18T09:56:32.940Z,3.81
2023-01-18T09:59:42.601Z,3.77
2023-01-18T10:02:30.906Z,3.59
2023-01-18T10:05:23.972Z,3.42
2023-01-18T10:08:05.249Z,3.31
2023-01-18T10:21:30.255Z,3.40
2023-01-18T11:07:56.389Z,4.89
2023-01-18T13:02:39.169Z,5.20
2023-01-18T13:05:19.216Z,5.10
2023-01-18T13:11:10.065Z,5.14
2023-01-18T13:14:17.886Z,5.22
2023-01-18T13:17:03.449Z,5.12
2023-01-18T13:19:45.390Z,4.90
2023-01-18T16:59:27.399Z,5.39
2023-01-18T17:50:22.944Z,5.07
2023-01-18T17:52:54.317Z,4.97
2023-01-18T17:55:27.444Z,4.98
2023-01-18T17:57:58.469Z,5.03
2023-01-18T18:00:29.070Z,5.04
2023-01-18T18:03:29.452Z,5.11
2023-01-18T18:06:02.526Z,4.69
2023-01-18T18:08:30.163Z,4.81
2023-01-18T18:11:00.050Z,4.89
2023-01-18T18:13:28.527Z,4.99
2023-01-18T18:15:57.035Z,4.67
2023-01-18T18:18:24.921Z,4.75
2023-01-18T18:21:04.124Z,4.74
2023-01-18T18:23:31.889Z,4.71
2023-01-18T18:26:00.354Z,4.79
2023-01-18T18:28:29.631Z,4.90
2023-01-18T18:30:58.607Z,4.97
2023-01-18T18:33:27.886Z,5.06
2023-01-18T18:35:58.240Z,5.08
2023-01-18T18:38:27.465Z,4.82
2023-01-18T18:40:55.244Z,4.87
2023-01-18T18:43:24.725Z,4.76
2023-01-18T18:45:52.513Z,4.86
2023-01-18T18:48:20.330Z,4.94
2023-01-18T18:50:47.987Z,4.93
2023-01-18T18:53:16.893Z,4.97
2023-01-18T18:55:44.866Z,5.06
2023-01-18T18:58:13.601Z,5.07
2023-01-18T20:56:47.424Z,4.46
2023-01-18T23:20:51.075Z,4.42
2023-01-18T23:23:40.828Z,4.26
2023-01-18T23:31:41.250Z,4.55
2023-01-18T23:34:29.752Z,4.45
2023-01-18T23:37:39.552Z,4.18
2023-01-18T23:43:52.901Z,4.20
2023-01-18T23:46:42.181Z,4.45
2023-01-18T23:49:31.861Z,4.46
2023-01-18T23:52:19.921Z,4.50
2023-01-18T23:54:47.663Z,4.17
2023-01-18T23:57:15.573Z,4.38
